sensor_id;sensor_type;location;lat;lon;timestamp;P1;durP1;ratioP1;P2;durP2;ratioP2
69623;SDS011;56843;52.020;5.670;2022-09-12T00:00:21;15.23;;;6.43;;
69623;SDS011;56843;52.020;5.670;2022-09-12T00:01:52;13.77;;;6.93;;
69623;SDS011;56843;52.020;5.670;2022-09-12T00:03:22;12.07;;;6.43;;
69623;SDS011;56843;52.020;5.670;2022-09-12T00:04:53;13.18;;;7.05;;
69623;SDS011;56843;52.020;5.670;2022-09-12T00:06:27;15.33;;;7.03;;
69623;SDS011;56843;52.020;5.670;2022-09-12T00:08:07;20.67;;;7.35;;
69623;SDS011;56843;52.020;5.670;2022-09-12T00:09:38;13.43;;;6.87;;
69623;SDS011;56843;52.020;5.670;2022-09-12T00:11:09;12.45;;;6.68;;
69623;SDS011;56843;52.020;5.670;2022-09-12T00:12:40;11.75;;;6.78;;
69623;SDS011;56843;52.020;5.670;2022-09-12T00:14:13;14.63;;;5.93;;
69623;SDS011;56843;52.020;5.670;2022-09-12T00:15:46;12.95;;;5.93;;
69623;SDS011;56843;52.020;5.670;2022-09-12T00:17:16;9.20;;;5.30;;
69623;SDS011;56843;52.020;5.670;2022-09-12T00:18:47;13.05;;;7.00;;
69623;SDS011;56843;52.020;5.670;2022-09-12T00:20:18;18.23;;;6.85;;
69623;SDS011;56843;52.020;5.670;2022-09-12T00:21:49;13.27;;;7.10;;
69623;SDS011;56843;52.020;5.670;2022-09-12T00:23:19;17.73;;;7.90;;
69623;SDS011;56843;52.020;5.670;2022-09-12T00:24:50;16.58;;;7.20;;
69623;SDS011;56843;52.020;5.670;2022-09-12T00:26:20;12.33;;;5.50;;
69623;SDS011;56843;52.020;5.670;2022-09-12T00:27:51;15.05;;;7.07;;
69623;SDS011;56843;52.020;5.670;2022-09-12T00:29:21;15.00;;;7.07;;
69623;SDS011;56843;52.020;5.670;2022-09-12T00:30:52;14.88;;;7.32;;
69623;SDS011;56843;52.020;5.670;2022-09-12T00:32:23;18.97;;;7.50;;
69623;SDS011;56843;52.020;5.670;2022-09-12T00:33:54;13.10;;;7.40;;
69623;SDS011;56843;52.020;5.670;2022-09-12T00:35:26;15.50;;;8.07;;
69623;SDS011;56843;52.020;5.670;2022-09-12T00:36:56;17.57;;;7.20;;
69623;SDS011;56843;52.020;5.670;2022-09-12T00:38:27;13.90;;;7.07;;
69623;SDS011;56843;52.020;5.670;2022-09-12T00:39:57;15.00;;;7.40;;
69623;SDS011;56843;52.020;5.670;2022-09-12T00:41:29;16.08;;;8.30;;
69623;SDS011;56843;52.020;5.670;2022-09-12T00:43:04;15.30;;;7.35;;
69623;SDS011;56843;52.020;5.670;2022-09-12T00:44:43;13.97;;;7.07;;
69623;SDS011;56843;52.020;5.670;2022-09-12T00:48:15;14.50;;;7.68;;
69623;SDS011;56843;52.020;5.670;2022-09-12T00:49:54;18.08;;;7.65;;
69623;SDS011;56843;52.020;5.670;2022-09-12T00:51:31;18.25;;;7.55;;
69623;SDS011;56843;52.020;5.670;2022-09-12T00:53:05;22.10;;;8.65;;
69623;SDS011;56843;52.020;5.670;2022-09-12T00:54:39;17.65;;;8.00;;
69623;SDS011;56843;52.020;5.670;2022-09-12T00:56:13;25.30;;;11.30;;
69623;SDS011;56843;52.020;5.670;2022-09-12T00:57:50;20.30;;;9.00;;
69623;SDS011;56843;52.020;5.670;2022-09-12T00:59:26;19.02;;;9.13;;
69623;SDS011;56843;52.020;5.670;2022-09-12T01:02:56;22.83;;;9.47;;
69623;SDS011;56843;52.020;5.670;2022-09-12T01:04:30;16.95;;;9.02;;
69623;SDS011;56843;52.020;5.670;2022-09-12T01:06:04;16.95;;;9.13;;
69623;SDS011;56843;52.020;5.670;2022-09-12T01:07:43;18.20;;;8.75;;
69623;SDS011;56843;52.020;5.670;2022-09-12T01:09:20;14.57;;;7.22;;
69623;SDS011;56843;52.020;5.670;2022-09-12T01:10:52;18.13;;;8.60;;
69623;SDS011;56843;52.020;5.670;2022-09-12T01:12:23;20.60;;;9.77;;
69623;SDS011;56843;52.020;5.670;2022-09-12T01:13:54;19.73;;;9.18;;
69623;SDS011;56843;52.020;5.670;2022-09-12T01:15:25;19.60;;;6.10;;
69623;SDS011;56843;52.020;5.670;2022-09-12T01:16:55;24.33;;;10.32;;
69623;SDS011;56843;52.020;5.670;2022-09-12T01:18:31;20.43;;;8.50;;
69623;SDS011;56843;52.020;5.670;2022-09-12T01:24:32;16.15;;;7.15;;
69623;SDS011;56843;52.020;5.670;2022-09-12T01:26:12;18.48;;;9.48;;
69623;SDS011;56843;52.020;5.670;2022-09-12T01:31:33;22.45;;;9.65;;
69623;SDS011;56843;52.020;5.670;2022-09-12T01:33:23;29.58;;;12.38;;
69623;SDS011;56843;52.020;5.670;2022-09-12T01:34:57;19.08;;;10.57;;
69623;SDS011;56843;52.020;5.670;2022-09-12T01:36:38;26.92;;;11.25;;
69623;SDS011;56843;52.020;5.670;2022-09-12T01:38:26;21.17;;;10.25;;
69623;SDS011;56843;52.020;5.670;2022-09-12T01:40:08;21.50;;;11.35;;
69623;SDS011;56843;52.020;5.670;2022-09-12T01:41:50;30.77;;;12.48;;
69623;SDS011;56843;52.020;5.670;2022-09-12T01:43:49;26.25;;;11.57;;
69623;SDS011;56843;52.020;5.670;2022-09-12T01:45:42;25.07;;;11.83;;
69623;SDS011;56843;52.020;5.670;2022-09-12T01:49:20;25.23;;;11.90;;
69623;SDS011;56843;52.020;5.670;2022-09-12T01:51:03;25.00;;;12.27;;
69623;SDS011;56843;52.020;5.670;2022-09-12T01:54:28;25.83;;;10.93;;
69623;SDS011;56843;52.020;5.670;2022-09-12T01:56:34;25.52;;;11.80;;
69623;SDS011;56843;52.020;5.670;2022-09-12T01:58:11;29.02;;;11.95;;
69623;SDS011;56843;52.020;5.670;2022-09-12T01:59:47;28.15;;;13.32;;
69623;SDS011;56843;52.020;5.670;2022-09-12T02:01:27;36.65;;;12.80;;
69623;SDS011;56843;52.020;5.670;2022-09-12T02:03:09;28.70;;;12.37;;
69623;SDS011;56843;52.020;5.670;2022-09-12T02:04:51;26.30;;;13.00;;
69623;SDS011;56843;52.020;5.670;2022-09-12T02:08:16;25.60;;;11.77;;
69623;SDS011;56843;52.020;5.670;2022-09-12T02:10:05;24.85;;;11.45;;
69623;SDS011;56843;52.020;5.670;2022-09-12T02:11:37;28.15;;;13.15;;
69623;SDS011;56843;52.020;5.670;2022-09-12T02:13:13;28.95;;;13.68;;
69623;SDS011;56843;52.020;5.670;2022-09-12T02:14:50;33.40;;;13.60;;
69623;SDS011;56843;52.020;5.670;2022-09-12T02:17:00;33.63;;;13.68;;
69623;SDS011;56843;52.020;5.670;2022-09-12T02:18:23;25.98;;;12.80;;
69623;SDS011;56843;52.020;5.670;2022-09-12T02:19:58;22.93;;;11.23;;
69623;SDS011;56843;52.020;5.670;2022-09-12T02:21:35;25.23;;;11.13;;
69623;SDS011;56843;52.020;5.670;2022-09-12T02:23:11;33.28;;;13.23;;
69623;SDS011;56843;52.020;5.670;2022-09-12T02:24:51;25.95;;;11.88;;
69623;SDS011;56843;52.020;5.670;2022-09-12T02:26:31;23.27;;;11.20;;
69623;SDS011;56843;52.020;5.670;2022-09-12T02:28:10;23.00;;;10.98;;
69623;SDS011;56843;52.020;5.670;2022-09-12T02:29:44;26.38;;;12.55;;
69623;SDS011;56843;52.020;5.670;2022-09-12T02:32:59;31.67;;;13.50;;
69623;SDS011;56843;52.020;5.670;2022-09-12T02:39:43;26.95;;;11.95;;
69623;SDS011;56843;52.020;5.670;2022-09-12T02:41:14;27.10;;;11.27;;
69623;SDS011;56843;52.020;5.670;2022-09-12T02:42:48;27.52;;;12.60;;
69623;SDS011;56843;52.020;5.670;2022-09-12T02:44:19;30.55;;;11.85;;
69623;SDS011;56843;52.020;5.670;2022-09-12T02:45:50;30.92;;;12.18;;
69623;SDS011;56843;52.020;5.670;2022-09-12T02:47:28;31.97;;;13.80;;
69623;SDS011;56843;52.020;5.670;2022-09-12T02:49:05;23.73;;;10.90;;
69623;SDS011;56843;52.020;5.670;2022-09-12T02:50:36;33.25;;;12.07;;
69623;SDS011;56843;52.020;5.670;2022-09-12T02:52:07;33.00;;;12.33;;
69623;SDS011;56843;52.020;5.670;2022-09-12T02:53:37;31.40;;;12.27;;
69623;SDS011;56843;52.020;5.670;2022-09-12T02:55:09;36.25;;;12.20;;
69623;SDS011;56843;52.020;5.670;2022-09-12T02:56:41;29.73;;;13.13;;
69623;SDS011;56843;52.020;5.670;2022-09-12T02:58:17;28.50;;;12.30;;
69623;SDS011;56843;52.020;5.670;2022-09-12T02:59:53;29.67;;;11.40;;
69623;SDS011;56843;52.020;5.670;2022-09-12T03:05:33;47.53;;;18.67;;
69623;SDS011;56843;52.020;5.670;2022-09-12T03:07:10;31.00;;;14.35;;
69623;SDS011;56843;52.020;5.670;2022-09-12T03:09:03;27.38;;;10.60;;
69623;SDS011;56843;52.020;5.670;2022-09-12T03:16:38;31.80;;;11.60;;
69623;SDS011;56843;52.020;5.670;2022-09-12T03:19:59;44.15;;;15.25;;
69623;SDS011;56843;52.020;5.670;2022-09-12T03:27:18;34.10;;;14.80;;
69623;SDS011;56843;52.020;5.670;2022-09-12T03:28:53;25.60;;;10.35;;
69623;SDS011;56843;52.020;5.670;2022-09-12T03:30:26;41.67;;;16.80;;
69623;SDS011;56843;52.020;5.670;2022-09-12T03:31:57;39.87;;;14.60;;
69623;SDS011;56843;52.020;5.670;2022-09-12T03:33:27;47.42;;;19.48;;
69623;SDS011;56843;52.020;5.670;2022-09-12T03:34:58;51.90;;;19.10;;
69623;SDS011;56843;52.020;5.670;2022-09-12T03:36:29;52.30;;;19.20;;
69623;SDS011;56843;52.020;5.670;2022-09-12T03:37:59;63.50;;;23.97;;
69623;SDS011;56843;52.020;5.670;2022-09-12T03:39:30;58.40;;;21.27;;
69623;SDS011;56843;52.020;5.670;2022-09-12T03:41:01;47.27;;;17.87;;
69623;SDS011;56843;52.020;5.670;2022-09-12T03:42:31;46.27;;;18.03;;
69623;SDS011;56843;52.020;5.670;2022-09-12T03:44:02;43.07;;;17.53;;
69623;SDS011;56843;52.020;5.670;2022-09-12T03:45:33;47.27;;;16.67;;
69623;SDS011;56843;52.020;5.670;2022-09-12T03:47:04;47.13;;;18.63;;
69623;SDS011;56843;52.020;5.670;2022-09-12T03:48:34;55.15;;;19.67;;
69623;SDS011;56843;52.020;5.670;2022-09-12T03:50:05;56.50;;;22.30;;
69623;SDS011;56843;52.020;5.670;2022-09-12T03:51:37;49.92;;;19.45;;
69623;SDS011;56843;52.020;5.670;2022-09-12T03:53:08;53.60;;;18.15;;
69623;SDS011;56843;52.020;5.670;2022-09-12T03:54:38;46.47;;;18.47;;
69623;SDS011;56843;52.020;5.670;2022-09-12T03:56:09;49.83;;;17.67;;
69623;SDS011;56843;52.020;5.670;2022-09-12T03:57:40;45.20;;;17.40;;
69623;SDS011;56843;52.020;5.670;2022-09-12T03:59:11;43.97;;;19.33;;
69623;SDS011;56843;52.020;5.670;2022-09-12T04:00:41;43.90;;;15.33;;
69623;SDS011;56843;52.020;5.670;2022-09-12T04:02:13;48.70;;;18.90;;
69623;SDS011;56843;52.020;5.670;2022-09-12T04:03:44;45.00;;;16.60;;
69623;SDS011;56843;52.020;5.670;2022-09-12T04:05:16;55.55;;;21.45;;
69623;SDS011;56843;52.020;5.670;2022-09-12T04:06:46;57.97;;;19.40;;
69623;SDS011;56843;52.020;5.670;2022-09-12T04:08:17;48.93;;;19.53;;
69623;SDS011;56843;52.020;5.670;2022-09-12T04:09:47;41.50;;;17.57;;
69623;SDS011;56843;52.020;5.670;2022-09-12T04:11:19;46.08;;;18.17;;
69623;SDS011;56843;52.020;5.670;2022-09-12T04:12:50;65.40;;;20.27;;
69623;SDS011;56843;52.020;5.670;2022-09-12T04:14:21;64.38;;;22.60;;
69623;SDS011;56843;52.020;5.670;2022-09-12T04:15:55;49.87;;;18.03;;
69623;SDS011;56843;52.020;5.670;2022-09-12T04:17:29;53.42;;;18.52;;
69623;SDS011;56843;52.020;5.670;2022-09-12T04:18:59;54.83;;;21.13;;
69623;SDS011;56843;52.020;5.670;2022-09-12T04:20:30;65.13;;;21.30;;
69623;SDS011;56843;52.020;5.670;2022-09-12T04:22:00;48.03;;;18.43;;
69623;SDS011;56843;52.020;5.670;2022-09-12T04:23:31;57.65;;;19.23;;
69623;SDS011;56843;52.020;5.670;2022-09-12T04:25:02;80.07;;;24.57;;
69623;SDS011;56843;52.020;5.670;2022-09-12T04:26:33;77.13;;;21.20;;
69623;SDS011;56843;52.020;5.670;2022-09-12T04:28:04;70.40;;;23.38;;
69623;SDS011;56843;52.020;5.670;2022-09-12T04:29:34;66.87;;;22.53;;
69623;SDS011;56843;52.020;5.670;2022-09-12T04:31:06;78.47;;;26.17;;
69623;SDS011;56843;52.020;5.670;2022-09-12T04:32:38;72.57;;;24.13;;
69623;SDS011;56843;52.020;5.670;2022-09-12T04:34:10;82.03;;;25.83;;
69623;SDS011;56843;52.020;5.670;2022-09-12T04:35:40;70.50;;;22.57;;
69623;SDS011;56843;52.020;5.670;2022-09-12T04:37:12;60.05;;;20.98;;
69623;SDS011;56843;52.020;5.670;2022-09-12T04:38:43;76.97;;;22.85;;
69623;SDS011;56843;52.020;5.670;2022-09-12T04:40:15;54.33;;;20.02;;
69623;SDS011;56843;52.020;5.670;2022-09-12T04:41:45;58.93;;;20.53;;
69623;SDS011;56843;52.020;5.670;2022-09-12T04:43:16;61.70;;;23.52;;
69623;SDS011;56843;52.020;5.670;2022-09-12T04:44:47;58.90;;;21.77;;
69623;SDS011;56843;52.020;5.670;2022-09-12T04:46:17;78.22;;;25.40;;
69623;SDS011;56843;52.020;5.670;2022-09-12T04:47:51;77.35;;;25.80;;
69623;SDS011;56843;52.020;5.670;2022-09-12T04:49:22;67.93;;;21.50;;
69623;SDS011;56843;52.020;5.670;2022-09-12T04:50:52;74.32;;;24.88;;
69623;SDS011;56843;52.020;5.670;2022-09-12T04:52:22;64.20;;;21.23;;
69623;SDS011;56843;52.020;5.670;2022-09-12T04:53:57;56.40;;;20.13;;
69623;SDS011;56843;52.020;5.670;2022-09-12T04:55:35;60.58;;;23.13;;
69623;SDS011;56843;52.020;5.670;2022-09-12T04:57:05;68.60;;;21.80;;
69623;SDS011;56843;52.020;5.670;2022-09-12T04:58:36;60.22;;;21.88;;
69623;SDS011;56843;52.020;5.670;2022-09-12T05:00:07;68.13;;;24.33;;
69623;SDS011;56843;52.020;5.670;2022-09-12T05:01:43;67.43;;;23.70;;
69623;SDS011;56843;52.020;5.670;2022-09-12T05:03:14;75.00;;;23.03;;
69623;SDS011;56843;52.020;5.670;2022-09-12T05:04:45;75.77;;;24.80;;
69623;SDS011;56843;52.020;5.670;2022-09-12T05:06:22;68.85;;;22.38;;
69623;SDS011;56843;52.020;5.670;2022-09-12T05:07:54;59.10;;;21.45;;
69623;SDS011;56843;52.020;5.670;2022-09-12T05:09:24;72.37;;;25.73;;
69623;SDS011;56843;52.020;5.670;2022-09-12T05:10:55;68.95;;;23.02;;
69623;SDS011;56843;52.020;5.670;2022-09-12T05:12:26;68.45;;;22.98;;
69623;SDS011;56843;52.020;5.670;2022-09-12T05:13:57;80.33;;;25.70;;
69623;SDS011;56843;52.020;5.670;2022-09-12T05:15:27;75.55;;;24.80;;
69623;SDS011;56843;52.020;5.670;2022-09-12T05:16:58;81.20;;;26.10;;
69623;SDS011;56843;52.020;5.670;2022-09-12T05:18:31;79.82;;;25.58;;
69623;SDS011;56843;52.020;5.670;2022-09-12T05:20:03;79.10;;;26.52;;
69623;SDS011;56843;52.020;5.670;2022-09-12T05:21:33;86.53;;;27.67;;
69623;SDS011;56843;52.020;5.670;2022-09-12T05:23:04;81.00;;;27.27;;
69623;SDS011;56843;52.020;5.670;2022-09-12T05:24:35;91.47;;;27.03;;
69623;SDS011;56843;52.020;5.670;2022-09-12T05:26:11;107.03;;;28.40;;
69623;SDS011;56843;52.020;5.670;2022-09-12T05:27:43;96.15;;;28.35;;
69623;SDS011;56843;52.020;5.670;2022-09-12T05:29:14;96.40;;;27.10;;
69623;SDS011;56843;52.020;5.670;2022-09-12T05:30:45;81.00;;;25.95;;
69623;SDS011;56843;52.020;5.670;2022-09-12T05:32:16;103.07;;;31.17;;
69623;SDS011;56843;52.020;5.670;2022-09-12T05:33:47;99.93;;;28.63;;
69623;SDS011;56843;52.020;5.670;2022-09-12T05:35:19;89.63;;;25.45;;
69623;SDS011;56843;52.020;5.670;2022-09-12T05:36:49;90.23;;;26.90;;
69623;SDS011;56843;52.020;5.670;2022-09-12T05:38:20;78.53;;;24.83;;
69623;SDS011;56843;52.020;5.670;2022-09-12T05:39:50;78.33;;;25.80;;
69623;SDS011;56843;52.020;5.670;2022-09-12T05:41:23;82.50;;;24.67;;
69623;SDS011;56843;52.020;5.670;2022-09-12T05:42:55;99.43;;;28.23;;
69623;SDS011;56843;52.020;5.670;2022-09-12T05:44:25;89.00;;;27.33;;
69623;SDS011;56843;52.020;5.670;2022-09-12T05:46:06;86.37;;;25.40;;
69623;SDS011;56843;52.020;5.670;2022-09-12T05:47:41;76.97;;;24.70;;
69623;SDS011;56843;52.020;5.670;2022-09-12T05:49:15;91.50;;;25.77;;
69623;SDS011;56843;52.020;5.670;2022-09-12T05:50:46;88.75;;;26.88;;
69623;SDS011;56843;52.020;5.670;2022-09-12T05:52:16;94.13;;;27.40;;
69623;SDS011;56843;52.020;5.670;2022-09-12T05:53:48;82.43;;;26.35;;
69623;SDS011;56843;52.020;5.670;2022-09-12T05:55:21;82.53;;;27.43;;
69623;SDS011;56843;52.020;5.670;2022-09-12T05:56:53;86.47;;;27.35;;
69623;SDS011;56843;52.020;5.670;2022-09-12T05:58:24;86.15;;;27.98;;
69623;SDS011;56843;52.020;5.670;2022-09-12T05:59:54;110.80;;;28.70;;
69623;SDS011;56843;52.020;5.670;2022-09-12T06:01:25;99.30;;;27.90;;
69623;SDS011;56843;52.020;5.670;2022-09-12T06:02:56;107.60;;;30.63;;
69623;SDS011;56843;52.020;5.670;2022-09-12T06:04:27;97.53;;;29.40;;
69623;SDS011;56843;52.020;5.670;2022-09-12T06:06:00;98.07;;;29.43;;
69623;SDS011;56843;52.020;5.670;2022-09-12T06:07:33;93.07;;;26.70;;
69623;SDS011;56843;52.020;5.670;2022-09-12T06:09:05;100.72;;;29.45;;
69623;SDS011;56843;52.020;5.670;2022-09-12T06:10:35;101.17;;;29.87;;
69623;SDS011;56843;52.020;5.670;2022-09-12T06:12:06;92.97;;;28.37;;
69623;SDS011;56843;52.020;5.670;2022-09-12T06:13:38;105.13;;;25.80;;
69623;SDS011;56843;52.020;5.670;2022-09-12T06:15:09;72.85;;;26.38;;
69623;SDS011;56843;52.020;5.670;2022-09-12T06:16:40;97.88;;;28.38;;
69623;SDS011;56843;52.020;5.670;2022-09-12T06:18:11;98.32;;;28.08;;
69623;SDS011;56843;52.020;5.670;2022-09-12T06:19:42;109.83;;;29.37;;
69623;SDS011;56843;52.020;5.670;2022-09-12T06:21:12;92.50;;;27.97;;
69623;SDS011;56843;52.020;5.670;2022-09-12T06:22:43;83.03;;;26.25;;
69623;SDS011;56843;52.020;5.670;2022-09-12T06:24:14;91.63;;;26.57;;
69623;SDS011;56843;52.020;5.670;2022-09-12T06:25:46;95.18;;;27.58;;
69623;SDS011;56843;52.020;5.670;2022-09-12T06:27:19;77.85;;;24.67;;
69623;SDS011;56843;52.020;5.670;2022-09-12T06:28:50;83.67;;;25.53;;
69623;SDS011;56843;52.020;5.670;2022-09-12T06:30:21;85.25;;;25.63;;
69623;SDS011;56843;52.020;5.670;2022-09-12T06:31:51;82.95;;;24.42;;
69623;SDS011;56843;52.020;5.670;2022-09-12T06:33:22;86.93;;;25.70;;
69623;SDS011;56843;52.020;5.670;2022-09-12T06:34:52;85.73;;;26.40;;
69623;SDS011;56843;52.020;5.670;2022-09-12T06:36:30;79.10;;;26.55;;
69623;SDS011;56843;52.020;5.670;2022-09-12T06:38:02;74.63;;;24.47;;
69623;SDS011;56843;52.020;5.670;2022-09-12T06:39:34;74.70;;;24.45;;
69623;SDS011;56843;52.020;5.670;2022-09-12T06:41:06;81.95;;;25.02;;
69623;SDS011;56843;52.020;5.670;2022-09-12T06:42:39;80.93;;;26.15;;
69623;SDS011;56843;52.020;5.670;2022-09-12T06:44:14;67.83;;;23.87;;
69623;SDS011;56843;52.020;5.670;2022-09-12T06:45:48;90.03;;;26.20;;
69623;SDS011;56843;52.020;5.670;2022-09-12T06:47:20;82.47;;;26.70;;
69623;SDS011;56843;52.020;5.670;2022-09-12T06:48:50;81.32;;;27.02;;
69623;SDS011;56843;52.020;5.670;2022-09-12T06:50:21;75.20;;;25.13;;
69623;SDS011;56843;52.020;5.670;2022-09-12T06:51:51;74.27;;;25.30;;
69623;SDS011;56843;52.020;5.670;2022-09-12T06:53:22;74.55;;;24.02;;
69623;SDS011;56843;52.020;5.670;2022-09-12T06:54:52;79.33;;;25.13;;
69623;SDS011;56843;52.020;5.670;2022-09-12T06:56:24;84.23;;;25.63;;
69623;SDS011;56843;52.020;5.670;2022-09-12T06:57:56;84.30;;;26.73;;
69623;SDS011;56843;52.020;5.670;2022-09-12T06:59:27;89.45;;;28.88;;
69623;SDS011;56843;52.020;5.670;2022-09-12T07:01:07;78.13;;;27.00;;
69623;SDS011;56843;52.020;5.670;2022-09-12T07:02:45;85.00;;;26.05;;
69623;SDS011;56843;52.020;5.670;2022-09-12T07:04:16;74.83;;;24.57;;
69623;SDS011;56843;52.020;5.670;2022-09-12T07:05:46;77.43;;;25.63;;
69623;SDS011;56843;52.020;5.670;2022-09-12T07:07:17;70.60;;;23.97;;
69623;SDS011;56843;52.020;5.670;2022-09-12T07:08:47;83.27;;;26.67;;
69623;SDS011;56843;52.020;5.670;2022-09-12T07:10:18;79.22;;;25.95;;
69623;SDS011;56843;52.020;5.670;2022-09-12T07:11:48;90.30;;;28.70;;
69623;SDS011;56843;52.020;5.670;2022-09-12T07:13:19;92.27;;;26.83;;
69623;SDS011;56843;52.020;5.670;2022-09-12T07:14:49;80.85;;;26.15;;
69623;SDS011;56843;52.020;5.670;2022-09-12T07:16:19;79.87;;;25.67;;
69623;SDS011;56843;52.020;5.670;2022-09-12T07:17:50;77.40;;;26.57;;
69623;SDS011;56843;52.020;5.670;2022-09-12T07:19:21;75.90;;;26.10;;
69623;SDS011;56843;52.020;5.670;2022-09-12T07:20:51;74.10;;;25.80;;
69623;SDS011;56843;52.020;5.670;2022-09-12T07:22:22;81.72;;;24.60;;
69623;SDS011;56843;52.020;5.670;2022-09-12T07:23:52;80.73;;;26.17;;
69623;SDS011;56843;52.020;5.670;2022-09-12T07:25:27;81.95;;;26.85;;
69623;SDS011;56843;52.020;5.670;2022-09-12T07:26:57;92.43;;;27.90;;
69623;SDS011;56843;52.020;5.670;2022-09-12T07:28:29;76.20;;;26.70;;
69623;SDS011;56843;52.020;5.670;2022-09-12T07:30:00;66.23;;;24.80;;
69623;SDS011;56843;52.020;5.670;2022-09-12T07:31:31;72.70;;;27.80;;
69623;SDS011;56843;52.020;5.670;2022-09-12T07:33:02;59.20;;;21.27;;
69623;SDS011;56843;52.020;5.670;2022-09-12T07:34:33;55.17;;;22.85;;
69623;SDS011;56843;52.020;5.670;2022-09-12T07:36:05;46.28;;;21.92;;
69623;SDS011;56843;52.020;5.670;2022-09-12T07:37:37;51.10;;;22.03;;
69623;SDS011;56843;52.020;5.670;2022-09-12T07:39:08;47.67;;;20.67;;
69623;SDS011;56843;52.020;5.670;2022-09-12T07:40:38;46.67;;;20.40;;
69623;SDS011;56843;52.020;5.670;2022-09-12T07:42:09;42.03;;;18.83;;
69623;SDS011;56843;52.020;5.670;2022-09-12T07:43:41;38.88;;;17.27;;
69623;SDS011;56843;52.020;5.670;2022-09-12T07:45:12;42.83;;;18.87;;
69623;SDS011;56843;52.020;5.670;2022-09-12T07:46:42;39.03;;;17.08;;
69623;SDS011;56843;52.020;5.670;2022-09-12T07:48:13;38.10;;;17.00;;
69623;SDS011;56843;52.020;5.670;2022-09-12T07:49:43;40.73;;;18.17;;
69623;SDS011;56843;52.020;5.670;2022-09-12T07:51:14;43.60;;;19.07;;
69623;SDS011;56843;52.020;5.670;2022-09-12T07:52:44;38.40;;;17.60;;
69623;SDS011;56843;52.020;5.670;2022-09-12T07:54:14;33.27;;;15.60;;
69623;SDS011;56843;52.020;5.670;2022-09-12T07:55:51;38.33;;;17.42;;
69623;SDS011;56843;52.020;5.670;2022-09-12T07:57:24;39.45;;;16.58;;
69623;SDS011;56843;52.020;5.670;2022-09-12T07:58:54;34.38;;;15.75;;
69623;SDS011;56843;52.020;5.670;2022-09-12T08:00:26;32.30;;;14.77;;
69623;SDS011;56843;52.020;5.670;2022-09-12T08:02:05;31.67;;;16.17;;
69623;SDS011;56843;52.020;5.670;2022-09-12T08:03:36;37.45;;;15.68;;
69623;SDS011;56843;52.020;5.670;2022-09-12T08:05:07;32.05;;;14.80;;
69623;SDS011;56843;52.020;5.670;2022-09-12T08:06:37;31.15;;;14.55;;
69623;SDS011;56843;52.020;5.670;2022-09-12T08:08:09;29.93;;;13.63;;
69623;SDS011;56843;52.020;5.670;2022-09-12T08:09:40;35.83;;;16.00;;
69623;SDS011;56843;52.020;5.670;2022-09-12T08:11:11;26.03;;;12.90;;
69623;SDS011;56843;52.020;5.670;2022-09-12T08:12:43;32.30;;;15.40;;
69623;SDS011;56843;52.020;5.670;2022-09-12T08:14:13;31.83;;;15.10;;
69623;SDS011;56843;52.020;5.670;2022-09-12T08:15:46;30.42;;;14.70;;
69623;SDS011;56843;52.020;5.670;2022-09-12T08:17:17;27.33;;;13.27;;
69623;SDS011;56843;52.020;5.670;2022-09-12T08:18:47;28.15;;;13.68;;
69623;SDS011;56843;52.020;5.670;2022-09-12T08:20:19;31.58;;;14.27;;
69623;SDS011;56843;52.020;5.670;2022-09-12T08:21:49;32.13;;;14.63;;
69623;SDS011;56843;52.020;5.670;2022-09-12T08:23:20;27.20;;;12.83;;
69623;SDS011;56843;52.020;5.670;2022-09-12T08:24:52;32.95;;;13.32;;
69623;SDS011;56843;52.020;5.670;2022-09-12T08:26:23;25.00;;;13.07;;
69623;SDS011;56843;52.020;5.670;2022-09-12T08:27:53;29.23;;;13.80;;
69623;SDS011;56843;52.020;5.670;2022-09-12T08:29:24;30.65;;;14.00;;
69623;SDS011;56843;52.020;5.670;2022-09-12T08:30:59;31.30;;;13.60;;
69623;SDS011;56843;52.020;5.670;2022-09-12T08:32:40;24.88;;;12.50;;
69623;SDS011;56843;52.020;5.670;2022-09-12T08:34:10;29.35;;;14.20;;
69623;SDS011;56843;52.020;5.670;2022-09-12T08:35:41;29.20;;;13.97;;
69623;SDS011;56843;52.020;5.670;2022-09-12T08:37:11;28.70;;;12.17;;
69623;SDS011;56843;52.020;5.670;2022-09-12T08:38:43;25.60;;;12.03;;
69623;SDS011;56843;52.020;5.670;2022-09-12T08:40:15;28.75;;;13.32;;
69623;SDS011;56843;52.020;5.670;2022-09-12T08:41:48;26.67;;;13.60;;
69623;SDS011;56843;52.020;5.670;2022-09-12T08:43:41;23.75;;;12.57;;
69623;SDS011;56843;52.020;5.670;2022-09-12T08:45:25;27.02;;;12.05;;
69623;SDS011;56843;52.020;5.670;2022-09-12T08:47:25;24.45;;;11.57;;
69623;SDS011;56843;52.020;5.670;2022-09-12T08:49:00;24.20;;;11.98;;
69623;SDS011;56843;52.020;5.670;2022-09-12T08:50:32;28.25;;;12.50;;
69623;SDS011;56843;52.020;5.670;2022-09-12T08:52:05;22.37;;;10.83;;
69623;SDS011;56843;52.020;5.670;2022-09-12T08:53:40;26.35;;;11.98;;
69623;SDS011;56843;52.020;5.670;2022-09-12T08:55:27;21.90;;;11.93;;
69623;SDS011;56843;52.020;5.670;2022-09-12T08:57:03;20.75;;;10.32;;
69623;SDS011;56843;52.020;5.670;2022-09-12T08:58:39;24.77;;;11.97;;
69623;SDS011;56843;52.020;5.670;2022-09-12T09:00:12;21.90;;;11.33;;
69623;SDS011;56843;52.020;5.670;2022-09-12T09:01:45;22.42;;;11.48;;
69623;SDS011;56843;52.020;5.670;2022-09-12T09:03:28;22.60;;;10.85;;
69623;SDS011;56843;52.020;5.670;2022-09-12T09:10:42;19.10;;;10.07;;
69623;SDS011;56843;52.020;5.670;2022-09-12T09:14:10;18.60;;;9.97;;
69623;SDS011;56843;52.020;5.670;2022-09-12T09:16:13;24.58;;;11.05;;
69623;SDS011;56843;52.020;5.670;2022-09-12T09:17:48;16.73;;;9.30;;
69623;SDS011;56843;52.020;5.670;2022-09-12T09:21:28;19.48;;;9.73;;
69623;SDS011;56843;52.020;5.670;2022-09-12T09:25:05;19.58;;;10.07;;
69623;SDS011;56843;52.020;5.670;2022-09-12T09:27:05;17.63;;;9.27;;
69623;SDS011;56843;52.020;5.670;2022-09-12T09:28:44;22.57;;;11.00;;
69623;SDS011;56843;52.020;5.670;2022-09-12T09:30:18;18.77;;;10.07;;
69623;SDS011;56843;52.020;5.670;2022-09-12T09:31:51;17.98;;;9.30;;
69623;SDS011;56843;52.020;5.670;2022-09-12T09:33:24;16.48;;;8.73;;
69623;SDS011;56843;52.020;5.670;2022-09-12T09:35:01;19.20;;;10.32;;
69623;SDS011;56843;52.020;5.670;2022-09-12T09:36:48;20.83;;;11.05;;
69623;SDS011;56843;52.020;5.670;2022-09-12T09:38:23;16.65;;;9.02;;
69623;SDS011;56843;52.020;5.670;2022-09-12T09:43:38;15.60;;;8.98;;
69623;SDS011;56843;52.020;5.670;2022-09-12T09:45:12;15.77;;;9.15;;
69623;SDS011;56843;52.020;5.670;2022-09-12T09:46:47;16.80;;;8.57;;
69623;SDS011;56843;52.020;5.670;2022-09-12T09:48:30;16.17;;;8.67;;
69623;SDS011;56843;52.020;5.670;2022-09-12T09:50:02;18.30;;;8.70;;
69623;SDS011;56843;52.020;5.670;2022-09-12T09:51:34;15.52;;;8.75;;
69623;SDS011;56843;52.020;5.670;2022-09-12T09:53:08;17.42;;;8.63;;
69623;SDS011;56843;52.020;5.670;2022-09-12T09:54:56;15.30;;;8.60;;
69623;SDS011;56843;52.020;5.670;2022-09-12T09:56:32;15.70;;;8.35;;
69623;SDS011;56843;52.020;5.670;2022-09-12T09:58:05;16.70;;;9.30;;
69623;SDS011;56843;52.020;5.670;2022-09-12T09:59:35;20.87;;;9.63;;
69623;SDS011;56843;52.020;5.670;2022-09-12T10:01:15;15.37;;;8.03;;
69623;SDS011;56843;52.020;5.670;2022-09-12T10:04:35;15.63;;;8.10;;
69623;SDS011;56843;52.020;5.670;2022-09-12T10:07:52;13.30;;;8.10;;
69623;SDS011;56843;52.020;5.670;2022-09-12T10:09:24;14.80;;;7.90;;